Dayville, OR (97825)

7:34 AM PDT on May 06, 2015 (GMT -0700)
School | | Change Station
CLOSE
Current Station
Personal Weather Station
Location: Dayville, OR
Elevation: 2448 ft
Nearby Weather Stations

Elev 2448 ft 44.47 °N, 119.54 °W | Updated 26 seconds ago

Mostly Cloudy
Mostly Cloudy
40.1 °F
Feels Like 40 °F
N
0.0
Wind Variable Wind from SW
Gusts 2.0 mph

Today
High -- | Low -- °F
--% Chance of Precip.
Yesterday
High -- | Low -- °F
Precip. -- in
5:41 AM 8:08 PM
Waning Gibbous, 94% visible
Pressure 29.99 in
Visibility 10.0 miles
Clouds Overcast 6000 ft
Windchill 40 °F
Dew Point 30 °F
Humidity 68%
Rainfall 0.00 in
Snow Depth Not available.
UV 0 out of 12
Pollen 8.70 out of 12
Air Quality Not available.
Flu Activity Regional
METAR KGCD 061415Z AUTO 29004KT 10SM OVC060 04/00 A2999 RMK AO2 T00400000

More Conditions Fewer Conditions

Pressure 29.99 in
Visibility 10.0 miles
Clouds Overcast 6000 ft
Windchill 40 °F
Dew Point 30 °F
Humidity 68%
Rainfall 0.00 in
Snow Depth Not available.
UV 0 out of 12
Pollen 8.70 out of 12
Air Quality Not available.
Flu Activity Regional
METAR KGCD 061415Z AUTO 29004KT 10SM OVC060 04/00 A2999 RMK AO2 T00400000

More Conditions Fewer Conditions

10-Day Weather Forecast

Almanac

Astronomy

May. 06, 2015 Rise Set
Actual Time
Civil Twilight
Nautical Twilight
Astronomical Twilight
Moon
Length of Visible Light
Length of Day
Tomorrow will be .
, % of the Moon is Illuminated

Today's Extremes

State Highs State Lows

Community

WunderPhotos

Upload Photos

1,818,916 photos uploaded!

WunderBlogs® & News

Nearby

Air Quality

  Air Quality AQ Index Pollutant
Not available.

Snow Depth

Station Depth Elevation

Earthquake Activity

City Distance Mag. Time & Date
Minimum magnitude displayed is 2.5.

Coastal Water Temperatures

Place Temperature

Stations

Nearby Weather Stations

Station Location Temp. Windchill Dew Point Humidity Wind Precip. Elev Updated Type